This is the latest recevied weather packets stored in our database for station/object CE3UOB-10. If no packets are shown the sender has not sent any weather packets the latest 10 day(s).
| Time | Temp. | Humidity | Pressure | Rain* | Wind** | Luminosity | Snow |
|---|---|---|---|---|---|---|---|
| 1777938517 | 14.44° C | 53% | 992.8 hPa | - | - | - | - |
| 1777936717 | 15.56° C | 48% | 992.6 hPa | - | - | - | - |
| 1777934929 | 17.22° C | 46% | 992.4 hPa | - | - | - | - |
| 1777934916 | 17.22° C | 46% | 992.4 hPa | - | - | - | - |
| 1777933116 | 17.22° C | 49% | 992.2 hPa | - | - | - | - |
| 1777931329 | 17.78° C | 45% | 992 hPa | - | - | - | - |
| 1777931316 | 17.78° C | 45% | 992 hPa | - | - | - | - |
| 1777929516 | 18.33° C | 45% | 991.8 hPa | - | - | - | - |
| 1777927729 | 18.33° C | 43% | 991.8 hPa | - | - | - | - |
| 1777927716 | 18.33° C | 43% | 991.8 hPa | - | - | - | - |
| 1777925915 | 18.33° C | 42% | 992.1 hPa | - | - | - | - |
| 1777924117 | 18.33° C | 44% | 992.2 hPa | - | - | - | - |
| 1777922317 | 18.33° C | 44% | 992.5 hPa | - | - | - | - |
| 1777920517 | 18.89° C | 43% | 992.7 hPa | - | - | - | - |
| 1777918792 | 18.33° C | 46% | 993.1 hPa | - | - | - | - |
| 1777918729 | 18.33° C | 46% | 993.1 hPa | - | - | - | - |
| 1777918717 | 18.33° C | 46% | 993.1 hPa | - | - | - | - |
| 1777916929 | 17.22° C | 46% | 993.4 hPa | - | - | - | - |
| 1777916917 | 17.22° C | 46% | 993.4 hPa | - | - | - | - |
| 1777915116 | 16.67° C | 49% | 994 hPa | - | - | - | - |
| 1777913316 | 16.11° C | 46% | 994.4 hPa | - | - | - | - |
| 1777911516 | 15.56° C | 47% | 994.6 hPa | - | - | - | - |
| 1777909729 | 15° C | 48% | 994.9 hPa | - | - | - | - |
| 1777909716 | 15° C | 48% | 994.9 hPa | - | - | - | - |
| 1777907916 | 14.44° C | 52% | 995.3 hPa | - | - | - | - |
* Rain since midnight (hover to see other rain measurements)
** Current wind speed in m/s (hover to see current wind gust speed)